Time;durP1;ratioP1;P1;durP2;ratioP2;P2;SDS_P1;SDS_P2;PMS_P1;PMS_P2;Temp;Humidity;BMP_temperature;BMP_pressure;BME280_temperature;BME280_humidity;BME280_pressure;Samples;Min_cycle;Max_cycle;Signal;HPM_P1;HPM_P2
2023/12/12 00:01:53;;;;;;;5.30;3.08;;;;;;;;;;5010258;28;20375;-68
2023/12/12 00:04:19;;;;;;;6.50;3.50;;;;;;;;;;5008914;28;20482;-67
2023/12/12 00:06:46;;;;;;;5.97;3.67;;;;;;;;;;5008385;28;20352;-67
2023/12/12 00:09:13;;;;;;;11.63;3.95;;;;;;;;;;5006152;28;20046;-68
2023/12/12 00:11:39;;;;;;;9.40;3.22;;;;;;;;;;5010062;28;20133;-68
2023/12/12 00:14:06;;;;;;;8.25;4.13;;;;;;;;;;5008869;28;20129;-68
2023/12/12 00:16:32;;;;;;;7.78;3.13;;;;;;;;;;5009557;28;20662;-70
2023/12/12 00:18:59;;;;;;;9.80;3.50;;;;;;;;;;5008602;28;20052;-69
2023/12/12 00:21:25;;;;;;;8.00;2.97;;;;;;;;;;5008143;28;20139;-67
2023/12/12 00:23:52;;;;;;;6.40;3.30;;;;;;;;;;4997439;28;20056;-68
2023/12/12 00:26:18;;;;;;;7.75;3.75;;;;;;;;;;5009059;28;20655;-70
2023/12/12 00:28:45;;;;;;;3.63;2.60;;;;;;;;;;5009578;28;20460;-68
2023/12/12 00:31:11;;;;;;;9.93;3.20;;;;;;;;;;5009599;28;20141;-68
2023/12/12 00:33:38;;;;;;;3.70;2.20;;;;;;;;;;5010989;28;20080;-68
2023/12/12 00:36:06;;;;;;;2.95;2.08;;;;;;;;;;5008166;28;20137;-70
2023/12/12 00:38:32;;;;;;;5.32;2.10;;;;;;;;;;5009387;28;20046;-68
2023/12/12 00:40:59;;;;;;;2.38;1.80;;;;;;;;;;5008517;28;20046;-69
2023/12/12 00:43:26;;;;;;;3.10;1.63;;;;;;;;;;5007221;28;20065;-68
2023/12/12 00:45:52;;;;;;;5.00;1.70;;;;;;;;;;5008454;28;20103;-67
2023/12/12 00:48:19;;;;;;;4.03;1.85;;;;;;;;;;5008811;28;20490;-66
2023/12/12 00:50:46;;;;;;;5.55;2.05;;;;;;;;;;5006646;28;20092;-66
2023/12/12 00:53:12;;;;;;;3.45;1.95;;;;;;;;;;5008786;28;20064;-69
2023/12/12 00:55:39;;;;;;;3.47;1.73;;;;;;;;;;5009860;28;20048;-66
2023/12/12 00:58:05;;;;;;;5.07;2.60;;;;;;;;;;5009303;28;20061;-68
2023/12/12 01:00:32;;;;;;;5.57;2.08;;;;;;;;;;5007836;28;20124;-68
2023/12/12 01:02:58;;;;;;;5.40;1.50;;;;;;;;;;5008681;28;20744;-66
2023/12/12 01:05:25;;;;;;;3.10;1.70;;;;;;;;;;5008575;28;20046;-66
2023/12/12 01:07:51;;;;;;;6.72;2.13;;;;;;;;;;5007854;28;20057;-68
2023/12/12 01:10:18;;;;;;;4.93;2.38;;;;;;;;;;5007902;28;20050;-68
2023/12/12 01:12:44;;;;;;;8.75;2.80;;;;;;;;;;5008192;28;20061;-69
2023/12/12 01:15:11;;;;;;;4.35;2.60;;;;;;;;;;5007983;28;20049;-68
2023/12/12 01:17:38;;;;;;;6.55;2.67;;;;;;;;;;5008979;28;20462;-71
2023/12/12 01:20:07;;;;;;;9.65;2.70;;;;;;;;;;5006166;28;20542;-68
2023/12/12 01:22:34;;;;;;;7.97;2.63;;;;;;;;;;5007085;28;20052;-69
2023/12/12 01:25:01;;;;;;;5.63;3.90;;;;;;;;;;5008467;28;20058;-67
2023/12/12 01:27:27;;;;;;;7.95;3.40;;;;;;;;;;5006238;28;20060;-68
2023/12/12 01:29:55;;;;;;;9.98;3.47;;;;;;;;;;5007670;28;20061;-70
2023/12/12 01:32:21;;;;;;;6.72;3.15;;;;;;;;;;5007837;28;20054;-69
2023/12/12 01:34:48;;;;;;;9.27;3.22;;;;;;;;;;5008286;28;20054;-69
2023/12/12 01:37:15;;;;;;;8.82;3.13;;;;;;;;;;5007918;28;20099;-69
2023/12/12 01:39:41;;;;;;;7.65;3.63;;;;;;;;;;5007275;28;20124;-67
2023/12/12 01:42:08;;;;;;;6.70;3.60;;;;;;;;;;5008002;28;20053;-68
2023/12/12 01:44:34;;;;;;;9.88;3.90;;;;;;;;;;5007248;28;20436;-70
2023/12/12 01:47:01;;;;;;;9.73;4.40;;;;;;;;;;5007466;28;20579;-68
2023/12/12 01:49:27;;;;;;;12.82;5.28;;;;;;;;;;5006885;28;20050;-67
2023/12/12 01:51:54;;;;;;;10.02;4.30;;;;;;;;;;5006575;28;20540;-68
2023/12/12 01:54:21;;;;;;;8.70;4.45;;;;;;;;;;5007197;28;20137;-69
2023/12/12 01:56:49;;;;;;;9.82;3.90;;;;;;;;;;5007404;28;20111;-68
2023/12/12 01:59:17;;;;;;;7.07;4.75;;;;;;;;;;5007758;28;20056;-69
2023/12/12 02:01:43;;;;;;;10.43;5.13;;;;;;;;;;5007049;28;20042;-68
2023/12/12 02:04:10;;;;;;;11.15;4.68;;;;;;;;;;5007780;28;20061;-68
2023/12/12 02:06:38;;;;;;;16.38;4.60;;;;;;;;;;5007147;28;20042;-68
2023/12/12 02:09:05;;;;;;;13.07;4.07;;;;;;;;;;4999990;28;20190;-69
2023/12/12 02:11:31;;;;;;;12.68;3.67;;;;;;;;;;5006772;28;20085;-69
2023/12/12 02:13:58;;;;;;;7.10;4.20;;;;;;;;;;5002883;28;20052;-67
2023/12/12 02:16:24;;;;;;;8.13;3.72;;;;;;;;;;5003312;28;20200;-67
2023/12/12 02:18:51;;;;;;;12.05;4.03;;;;;;;;;;5007270;28;20045;-65
2023/12/12 02:21:20;;;;;;;9.02;3.42;;;;;;;;;;5006551;28;20054;-68
2023/12/12 02:23:47;;;;;;;14.73;3.70;;;;;;;;;;5005872;28;20066;-68
2023/12/12 02:26:13;;;;;;;8.02;3.42;;;;;;;;;;5006910;28;20084;-69
2023/12/12 02:28:40;;;;;;;8.55;3.38;;;;;;;;;;5006532;28;20095;-66
2023/12/12 02:31:08;;;;;;;8.13;3.05;;;;;;;;;;5006123;28;20050;-67
2023/12/12 02:33:34;;;;;;;4.30;2.97;;;;;;;;;;5006427;28;20718;-66
2023/12/12 02:36:01;;;;;;;4.93;2.70;;;;;;;;;;5006851;28;20050;-67
2023/12/12 02:38:28;;;;;;;10.15;3.67;;;;;;;;;;5006769;28;20073;-66
2023/12/12 02:40:54;;;;;;;8.35;3.60;;;;;;;;;;5007135;28;20498;-65
2023/12/12 02:43:21;;;;;;;7.50;3.00;;;;;;;;;;5007068;28;20104;-67
2023/12/12 02:45:47;;;;;;;5.32;3.38;;;;;;;;;;5006555;28;20582;-66
2023/12/12 02:48:15;;;;;;;9.43;4.10;;;;;;;;;;5006795;28;20112;-66
2023/12/12 02:50:42;;;;;;;12.30;4.32;;;;;;;;;;5006928;28;20177;-66
2023/12/12 02:53:09;;;;;;;11.90;5.13;;;;;;;;;;5005856;28;20038;-68
2023/12/12 02:55:35;;;;;;;6.82;4.38;;;;;;;;;;5006906;28;20135;-66
2023/12/12 02:58:02;;;;;;;10.32;4.40;;;;;;;;;;5006466;28;20095;-67
2023/12/12 03:00:28;;;;;;;10.43;5.07;;;;;;;;;;5006274;28;20042;-68
2023/12/12 03:02:55;;;;;;;16.63;4.90;;;;;;;;;;5006176;28;20068;-69
2023/12/12 03:05:21;;;;;;;10.18;5.15;;;;;;;;;;5006508;28;20046;-69
2023/12/12 03:07:48;;;;;;;10.82;4.68;;;;;;;;;;5006600;28;20146;-69
2023/12/12 03:10:14;;;;;;;11.57;4.13;;;;;;;;;;5005882;28;20057;-68
2023/12/12 03:12:40;;;;;;;6.80;3.85;;;;;;;;;;5007178;28;20130;-68
2023/12/12 03:15:07;;;;;;;9.23;4.10;;;;;;;;;;5007642;28;20490;-68
2023/12/12 03:17:33;;;;;;;4.60;3.28;;;;;;;;;;5006482;28;20128;-68
2023/12/12 03:20:00;;;;;;;7.15;3.33;;;;;;;;;;5005683;28;20136;-69
2023/12/12 03:22:27;;;;;;;19.95;4.05;;;;;;;;;;5006490;28;20569;-67
2023/12/12 03:24:53;;;;;;;14.48;3.75;;;;;;;;;;5005217;28;20050;-69
2023/12/12 03:27:20;;;;;;;10.77;3.10;;;;;;;;;;5006125;28;20107;-68
2023/12/12 03:29:46;;;;;;;5.88;3.25;;;;;;;;;;5006456;28;20733;-69
2023/12/12 03:32:13;;;;;;;9.18;3.08;;;;;;;;;;5006567;28;20108;-69
2023/12/12 03:34:39;;;;;;;7.32;3.20;;;;;;;;;;5005976;28;20563;-68
2023/12/12 03:37:06;;;;;;;12.10;3.35;;;;;;;;;;5006966;28;20050;-68
2023/12/12 03:39:32;;;;;;;7.35;3.33;;;;;;;;;;5007250;28;20046;-67
2023/12/12 03:41:58;;;;;;;12.85;3.17;;;;;;;;;;5008013;28;20046;-69
2023/12/12 03:44:25;;;;;;;10.98;3.00;;;;;;;;;;5010091;28;20052;-70
2023/12/12 03:46:52;;;;;;;9.38;2.63;;;;;;;;;;5009650;28;20065;-69
2023/12/12 03:49:18;;;;;;;6.07;2.85;;;;;;;;;;5009995;28;20061;-69
2023/12/12 03:51:45;;;;;;;16.33;2.83;;;;;;;;;;5009651;28;20049;-68
2023/12/12 03:54:11;;;;;;;5.40;2.60;;;;;;;;;;5009033;28;20116;-70
2023/12/12 03:56:38;;;;;;;5.70;2.95;;;;;;;;;;5009593;28;20049;-69
2023/12/12 03:59:04;;;;;;;9.90;2.47;;;;;;;;;;5009844;28;20100;-68
2023/12/12 04:01:31;;;;;;;5.68;2.25;;;;;;;;;;5010526;28;20112;-71
2023/12/12 04:03:58;;;;;;;13.38;2.85;;;;;;;;;;5009735;28;20510;-69
2023/12/12 04:06:24;;;;;;;10.45;3.88;;;;;;;;;;5009114;28;20088;-68
2023/12/12 04:08:51;;;;;;;6.45;3.35;;;;;;;;;;5008253;28;20551;-69
2023/12/12 04:11:17;;;;;;;6.93;3.05;;;;;;;;;;5009096;28;20695;-69
2023/12/12 04:13:44;;;;;;;11.00;2.65;;;;;;;;;;5008715;28;20077;-71
2023/12/12 04:16:10;;;;;;;5.30;2.35;;;;;;;;;;5009504;28;20053;-69
2023/12/12 04:18:37;;;;;;;10.73;3.83;;;;;;;;;;5006904;28;20080;-70
2023/12/12 04:21:04;;;;;;;15.07;3.05;;;;;;;;;;5007222;28;20050;-69
2023/12/12 04:23:30;;;;;;;6.03;2.50;;;;;;;;;;5009524;28;20487;-70
2023/12/12 04:25:57;;;;;;;10.55;3.90;;;;;;;;;;5008706;28;20085;-68
2023/12/12 04:28:23;;;;;;;16.17;3.58;;;;;;;;;;5008954;28;20065;-69
2023/12/12 04:30:50;;;;;;;7.60;3.33;;;;;;;;;;5005320;28;20085;-70
2023/12/12 04:33:16;;;;;;;9.50;3.40;;;;;;;;;;5008852;28;20057;-72
2023/12/12 04:35:43;;;;;;;7.25;2.75;;;;;;;;;;5008194;28;20073;-70
2023/12/12 04:38:09;;;;;;;7.40;2.72;;;;;;;;;;5008558;28;20050;-70
2023/12/12 04:40:36;;;;;;;8.60;3.60;;;;;;;;;;5008058;28;20064;-70
2023/12/12 04:43:02;;;;;;;4.57;2.33;;;;;;;;;;5008821;28;20119;-73
2023/12/12 04:45:29;;;;;;;6.25;3.42;;;;;;;;;;5007729;28;20060;-72
2023/12/12 04:47:55;;;;;;;6.45;2.95;;;;;;;;;;5004101;28;20153;-70
2023/12/12 04:50:22;;;;;;;7.72;3.00;;;;;;;;;;5004425;28;20072;-69
2023/12/12 04:52:48;;;;;;;7.95;3.47;;;;;;;;;;5008094;28;20129;-70
2023/12/12 04:55:15;;;;;;;9.40;3.03;;;;;;;;;;5006549;28;20053;-72
2023/12/12 04:57:43;;;;;;;10.35;3.83;;;;;;;;;;5008774;28;20060;-69
2023/12/12 05:00:13;;;;;;;7.00;2.70;;;;;;;;;;5007432;28;20049;-69
2023/12/12 05:02:41;;;;;;;9.82;2.72;;;;;;;;;;5008801;28;20115;-70
2023/12/12 05:05:08;;;;;;;10.25;3.33;;;;;;;;;;5007262;28;20053;-69
2023/12/12 05:07:34;;;;;;;7.68;3.70;;;;;;;;;;5008566;28;20041;-69
2023/12/12 05:10:01;;;;;;;14.95;3.50;;;;;;;;;;5007182;28;20132;-71
2023/12/12 05:12:28;;;;;;;7.07;2.72;;;;;;;;;;5007920;28;20609;-69
2023/12/12 05:14:57;;;;;;;8.40;3.40;;;;;;;;;;5007855;28;20128;-69
2023/12/12 05:17:23;;;;;;;10.25;2.95;;;;;;;;;;5007743;28;20038;-73
2023/12/12 05:19:50;;;;;;;7.57;2.95;;;;;;;;;;5008239;28;20049;-70
2023/12/12 05:22:17;;;;;;;11.10;3.25;;;;;;;;;;5007584;28;20046;-70
2023/12/12 05:24:44;;;;;;;9.32;2.97;;;;;;;;;;5008224;28;20046;-71
2023/12/12 05:27:10;;;;;;;9.52;2.75;;;;;;;;;;5006284;28;20096;-70
2023/12/12 05:29:36;;;;;;;9.07;3.30;;;;;;;;;;5007959;28;20093;-69
2023/12/12 05:32:03;;;;;;;14.13;3.30;;;;;;;;;;5007186;28;20449;-71
2023/12/12 05:34:29;;;;;;;11.75;2.42;;;;;;;;;;5007668;28;20046;-70
2023/12/12 05:36:56;;;;;;;5.90;3.00;;;;;;;;;;5007751;28;20125;-69
2023/12/12 05:39:22;;;;;;;5.07;2.58;;;;;;;;;;5007389;28;20583;-71
2023/12/12 05:41:49;;;;;;;10.48;2.78;;;;;;;;;;5007024;28;20449;-69
2023/12/12 05:44:15;;;;;;;10.30;3.03;;;;;;;;;;5007596;28;20049;-70
2023/12/12 05:46:42;;;;;;;8.73;4.20;;;;;;;;;;5007941;28;20050;-71
2023/12/12 05:49:11;;;;;;;10.10;3.85;;;;;;;;;;5007285;28;20104;-71
2023/12/12 05:51:39;;;;;;;10.77;3.78;;;;;;;;;;5007608;28;20429;-71
2023/12/12 05:54:11;;;;;;;6.90;3.45;;;;;;;;;;5007166;28;20050;-70
2023/12/12 05:56:38;;;;;;;8.98;3.22;;;;;;;;;;5006525;28;20041;-72
2023/12/12 05:59:05;;;;;;;10.65;5.13;;;;;;;;;;5007244;28;20100;-71
2023/12/12 06:01:31;;;;;;;10.80;3.65;;;;;;;;;;5007248;28;20054;-71
2023/12/12 06:03:58;;;;;;;8.93;3.78;;;;;;;;;;5007153;28;20050;-72
2023/12/12 06:06:24;;;;;;;9.40;3.55;;;;;;;;;;5006432;28;20055;-72
2023/12/12 06:08:52;;;;;;;7.90;3.63;;;;;;;;;;4999406;28;20038;-70
2023/12/12 06:11:21;;;;;;;10.30;3.40;;;;;;;;;;5006585;28;20061;-72
2023/12/12 06:13:47;;;;;;;8.00;2.97;;;;;;;;;;5006843;28;20076;-69
2023/12/12 06:16:14;;;;;;;5.13;3.28;;;;;;;;;;5006720;28;20104;-69
2023/12/12 06:18:44;;;;;;;9.18;3.50;;;;;;;;;;5010693;28;20042;-71
2023/12/12 06:21:10;;;;;;;5.88;3.58;;;;;;;;;;5009496;28;20824;-73
2023/12/12 06:23:37;;;;;;;6.78;3.65;;;;;;;;;;5006658;28;20514;-70
2023/12/12 06:26:03;;;;;;;13.27;3.53;;;;;;;;;;5005869;28;20120;-69
2023/12/12 06:28:30;;;;;;;9.98;3.35;;;;;;;;;;5006943;28;20483;-69
2023/12/12 06:30:57;;;;;;;13.73;4.70;;;;;;;;;;5005181;28;20485;-70
2023/12/12 06:33:27;;;;;;;17.05;4.07;;;;;;;;;;5007374;28;20532;-73
2023/12/12 06:35:55;;;;;;;11.05;4.25;;;;;;;;;;4997461;28;20462;-69
2023/12/12 06:38:21;;;;;;;10.90;3.80;;;;;;;;;;5007282;28;20072;-69
2023/12/12 06:40:48;;;;;;;15.23;4.72;;;;;;;;;;5006326;28;20050;-69
2023/12/12 06:43:14;;;;;;;9.20;4.32;;;;;;;;;;5009196;28;20513;-72
2023/12/12 06:45:41;;;;;;;8.45;3.47;;;;;;;;;;5005808;28;20053;-72
2023/12/12 06:48:08;;;;;;;7.05;3.97;;;;;;;;;;4992196;28;20050;-71
2023/12/12 06:50:34;;;;;;;12.90;4.45;;;;;;;;;;5006491;28;20375;-72
2023/12/12 06:53:01;;;;;;;5.13;3.88;;;;;;;;;;5006970;28;20104;-71
2023/12/12 06:55:28;;;;;;;17.50;4.45;;;;;;;;;;5005539;28;20125;-71
2023/12/12 06:57:54;;;;;;;13.82;5.63;;;;;;;;;;5006562;28;20069;-74
2023/12/12 07:00:21;;;;;;;10.38;4.10;;;;;;;;;;5004506;28;20088;-71
2023/12/12 07:02:47;;;;;;;10.80;4.50;;;;;;;;;;5007245;28;20042;-69
2023/12/12 07:05:15;;;;;;;10.27;4.30;;;;;;;;;;5006633;28;20057;-70
2023/12/12 07:07:41;;;;;;;10.55;4.05;;;;;;;;;;5005631;28;20075;-70
2023/12/12 07:10:08;;;;;;;9.90;3.50;;;;;;;;;;5006159;28;20125;-71
2023/12/12 07:12:35;;;;;;;14.57;4.28;;;;;;;;;;5006381;28;20046;-70
2023/12/12 07:15:02;;;;;;;12.25;3.85;;;;;;;;;;5006879;28;20057;-69
2023/12/12 07:17:28;;;;;;;13.25;3.88;;;;;;;;;;5008473;28;20057;-70
2023/12/12 07:19:55;;;;;;;11.25;4.05;;;;;;;;;;5010203;28;20054;-69
2023/12/12 07:22:22;;;;;;;10.75;3.40;;;;;;;;;;5010012;28;20077;-70
2023/12/12 07:24:48;;;;;;;10.70;3.60;;;;;;;;;;5010200;28;20116;-70
2023/12/12 07:27:16;;;;;;;13.38;3.85;;;;;;;;;;5009894;28;20080;-72
2023/12/12 07:29:42;;;;;;;12.88;3.80;;;;;;;;;;5009013;28;20057;-73
2023/12/12 07:32:09;;;;;;;9.52;3.85;;;;;;;;;;5010488;28;20073;-70
2023/12/12 07:34:35;;;;;;;10.13;4.13;;;;;;;;;;5000710;28;20053;-71
2023/12/12 07:37:02;;;;;;;8.63;3.53;;;;;;;;;;5010186;28;20092;-72
2023/12/12 07:39:28;;;;;;;13.55;4.35;;;;;;;;;;5010616;28;20617;-70
2023/12/12 07:41:55;;;;;;;14.15;4.35;;;;;;;;;;5009136;28;20049;-71
2023/12/12 07:44:21;;;;;;;12.93;3.75;;;;;;;;;;5009357;28;20056;-71
2023/12/12 07:46:48;;;;;;;8.45;3.30;;;;;;;;;;5009691;28;20127;-70
2023/12/12 07:49:15;;;;;;;23.75;4.53;;;;;;;;;;5009172;28;20077;-71
2023/12/12 07:51:41;;;;;;;18.75;5.15;;;;;;;;;;5009116;28;20049;-71
2023/12/12 07:54:08;;;;;;;10.90;3.80;;;;;;;;;;5009290;28;20116;-71
2023/12/12 07:56:35;;;;;;;16.73;5.10;;;;;;;;;;5009478;28;20044;-70
2023/12/12 07:59:01;;;;;;;14.43;5.28;;;;;;;;;;4991801;28;20050;-71
2023/12/12 08:01:29;;;;;;;8.02;4.03;;;;;;;;;;5008984;28;20103;-70
2023/12/12 08:03:56;;;;;;;13.75;4.40;;;;;;;;;;5009423;28;20385;-71
2023/12/12 08:06:22;;;;;;;20.13;5.63;;;;;;;;;;5009157;28;20108;-68
2023/12/12 08:08:49;;;;;;;14.00;4.07;;;;;;;;;;5008652;28;20045;-70
2023/12/12 08:11:15;;;;;;;11.70;3.63;;;;;;;;;;5009172;28;20054;-69
2023/12/12 08:13:42;;;;;;;16.33;5.45;;;;;;;;;;5008984;28;20050;-69
2023/12/12 08:16:09;;;;;;;9.75;3.85;;;;;;;;;;5007568;28;20096;-68
2023/12/12 08:18:37;;;;;;;15.27;5.05;;;;;;;;;;5009436;28;20534;-69
2023/12/12 08:21:04;;;;;;;12.98;3.75;;;;;;;;;;5008625;28;20050;-71
2023/12/12 08:23:33;;;;;;;7.68;4.15;;;;;;;;;;5009162;28;20076;-70
2023/12/12 08:26:00;;;;;;;13.63;4.55;;;;;;;;;;5008856;28;20581;-67
2023/12/12 08:28:27;;;;;;;13.18;4.15;;;;;;;;;;5007650;28;20053;-71
2023/12/12 08:30:54;;;;;;;12.27;4.95;;;;;;;;;;5007752;28;20048;-66
2023/12/12 08:33:20;;;;;;;12.68;4.47;;;;;;;;;;5009160;28;20053;-70
2023/12/12 08:35:47;;;;;;;9.10;3.85;;;;;;;;;;5008338;28;20164;-69
2023/12/12 08:38:13;;;;;;;9.07;4.03;;;;;;;;;;5008951;28;20050;-67
2023/12/12 08:40:40;;;;;;;6.32;3.95;;;;;;;;;;5008358;28;20104;-68
2023/12/12 08:43:07;;;;;;;15.65;4.18;;;;;;;;;;5008498;28;20038;-67
2023/12/12 08:45:33;;;;;;;16.15;4.10;;;;;;;;;;5008298;28;20128;-67
2023/12/12 08:48:00;;;;;;;17.23;4.43;;;;;;;;;;5008476;28;20762;-68
2023/12/12 08:50:26;;;;;;;19.13;4.82;;;;;;;;;;5007698;28;20519;-67
2023/12/12 08:52:53;;;;;;;6.47;4.22;;;;;;;;;;5008283;28;20376;-67
2023/12/12 08:55:19;;;;;;;13.32;5.20;;;;;;;;;;5008606;28;20073;-68
2023/12/12 08:57:46;;;;;;;11.43;4.10;;;;;;;;;;5008377;28;20041;-69
2023/12/12 09:00:13;;;;;;;16.67;5.18;;;;;;;;;;5006722;28;20061;-69
2023/12/12 09:02:39;;;;;;;21.30;4.25;;;;;;;;;;5008541;28;20065;-69
2023/12/12 09:05:06;;;;;;;10.85;5.10;;;;;;;;;;5007404;28;20072;-69
2023/12/12 09:07:33;;;;;;;12.77;4.38;;;;;;;;;;5007977;28;20184;-68
2023/12/12 09:10:01;;;;;;;7.20;3.17;;;;;;;;;;5007873;28;20516;-68
2023/12/12 09:12:28;;;;;;;11.68;3.28;;;;;;;;;;5008185;28;20438;-69
2023/12/12 09:14:54;;;;;;;11.20;3.78;;;;;;;;;;5007850;28;20647;-68
2023/12/12 09:17:21;;;;;;;12.93;4.90;;;;;;;;;;5008669;28;20054;-70
2023/12/12 09:19:48;;;;;;;6.25;3.83;;;;;;;;;;5007799;28;20100;-67
2023/12/12 09:22:14;;;;;;;11.57;3.47;;;;;;;;;;5009561;28;20080;-70
2023/12/12 09:24:41;;;;;;;16.10;3.90;;;;;;;;;;5010536;28;20123;-74
2023/12/12 09:27:07;;;;;;;13.82;4.03;;;;;;;;;;5008530;28;20056;-70
2023/12/12 09:29:34;;;;;;;15.38;4.72;;;;;;;;;;5007761;28;20042;-67
2023/12/12 09:32:00;;;;;;;8.43;2.95;;;;;;;;;;5006935;28;20049;-70
2023/12/12 09:34:27;;;;;;;12.07;4.47;;;;;;;;;;5008402;28;20053;-71
2023/12/12 09:36:53;;;;;;;11.65;3.08;;;;;;;;;;5008082;28;20052;-75
2023/12/12 09:39:20;;;;;;;10.85;3.55;;;;;;;;;;5007456;28;20549;-71
2023/12/12 09:41:50;;;;;;;13.30;3.70;;;;;;;;;;5007344;28;20041;-70
2023/12/12 09:44:17;;;;;;;9.20;2.63;;;;;;;;;;5007903;28;20082;-70
2023/12/12 09:46:44;;;;;;;13.25;3.33;;;;;;;;;;5003603;28;20050;-72
2023/12/12 09:49:11;;;;;;;14.55;3.15;;;;;;;;;;5000500;28;20046;-74
2023/12/12 09:51:40;;;;;;;8.95;3.20;;;;;;;;;;5007420;28;20144;-74
2023/12/12 09:54:07;;;;;;;5.45;2.53;;;;;;;;;;5007979;28;20135;-74
2023/12/12 09:56:35;;;;;;;8.75;3.20;;;;;;;;;;5007710;28;20042;-73
2023/12/12 09:59:03;;;;;;;13.15;2.70;;;;;;;;;;5008165;28;20129;-70
2023/12/12 10:01:31;;;;;;;10.90;3.20;;;;;;;;;;5006428;28;20112;-71
2023/12/12 10:03:58;;;;;;;8.88;3.67;;;;;;;;;;5007125;28;20054;-75
2023/12/12 10:06:27;;;;;;;13.48;4.05;;;;;;;;;;5007249;28;20434;-77
2023/12/12 10:08:58;;;;;;;9.13;2.70;;;;;;;;;;5000815;28;20136;-74
2023/12/12 10:11:24;;;;;;;7.78;2.75;;;;;;;;;;5007246;28;20037;-71
2023/12/12 10:13:54;;;;;;;7.22;2.47;;;;;;;;;;5007237;28;20131;-79
2023/12/12 10:16:21;;;;;;;6.68;2.90;;;;;;;;;;5007271;28;20042;-75
2023/12/12 10:18:47;;;;;;;3.95;2.58;;;;;;;;;;5007443;28;20387;-73
2023/12/12 10:21:21;;;;;;;5.22;2.65;;;;;;;;;;5007182;28;20050;-72
2023/12/12 10:23:52;;;;;;;8.90;2.42;;;;;;;;;;5007173;28;20486;-72
2023/12/12 10:26:29;;;;;;;8.32;2.50;;;;;;;;;;5007052;28;20626;-74
2023/12/12 10:28:57;;;;;;;6.47;3.13;;;;;;;;;;5006766;28;20099;-72
2023/12/12 10:31:24;;;;;;;9.57;2.58;;;;;;;;;;5006472;28;20177;-79
2023/12/12 10:33:51;;;;;;;6.72;2.42;;;;;;;;;;5006589;28;20066;-75
2023/12/12 10:36:17;;;;;;;6.43;2.40;;;;;;;;;;5007397;28;20116;-72
2023/12/12 10:38:44;;;;;;;10.48;3.40;;;;;;;;;;5007904;28;20046;-70
2023/12/12 10:41:12;;;;;;;6.53;2.83;;;;;;;;;;5007522;28;20057;-72
2023/12/12 10:43:40;;;;;;;10.45;3.70;;;;;;;;;;5007496;28;20438;-73
2023/12/12 10:46:11;;;;;;;11.52;3.13;;;;;;;;;;5006857;28;20045;-75
2023/12/12 10:48:41;;;;;;;10.77;3.58;;;;;;;;;;5007328;28;20141;-68
2023/12/12 10:51:09;;;;;;;4.32;2.20;;;;;;;;;;5007639;28;20045;-73
2023/12/12 10:53:36;;;;;;;13.25;2.80;;;;;;;;;;5011331;28;20050;-71
2023/12/12 10:56:04;;;;;;;11.00;3.25;;;;;;;;;;5010750;28;20115;-71
2023/12/12 10:58:31;;;;;;;6.68;2.50;;;;;;;;;;5011227;28;20130;-73
2023/12/12 11:00:58;;;;;;;12.63;3.72;;;;;;;;;;5010711;28;20057;-72
2023/12/12 11:03:25;;;;;;;8.80;2.35;;;;;;;;;;5009615;28;20058;-71
2023/12/12 11:05:52;;;;;;;9.27;2.50;;;;;;;;;;5010587;28;20045;-73
2023/12/12 11:08:19;;;;;;;7.93;2.33;;;;;;;;;;5002224;28;20077;-72
2023/12/12 11:10:48;;;;;;;8.85;2.88;;;;;;;;;;5010391;28;20042;-73
2023/12/12 11:13:15;;;;;;;9.10;2.92;;;;;;;;;;5010786;28;20046;-69
2023/12/12 11:15:42;;;;;;;10.00;2.60;;;;;;;;;;5010688;28;20045;-73
2023/12/12 11:18:09;;;;;;;5.35;2.80;;;;;;;;;;5006242;28;20120;-71
2023/12/12 11:20:40;;;;;;;7.28;3.35;;;;;;;;;;5010380;28;20065;-74
2023/12/12 11:23:07;;;;;;;;;;;;;;;;;;5010746;28;20145;-67
2023/12/12 11:25:34;;;;;;;9.90;2.45;;;;;;;;;;5010182;28;19921;-75
2023/12/12 11:28:01;;;;;;;7.07;2.78;;;;;;;;;;5011277;28;20061;-73
2023/12/12 11:30:37;;;;;;;10.25;2.17;;;;;;;;;;5012587;28;20049;-74
2023/12/12 11:33:07;;;;;;;13.38;3.50;;;;;;;;;;5011254;28;20041;-75
2023/12/12 11:35:34;;;;;;;8.93;2.10;;;;;;;;;;5013630;28;20056;-74
2023/12/12 11:38:05;;;;;;;5.25;1.60;;;;;;;;;;5010374;28;20060;-73
2023/12/12 11:40:37;;;;;;;7.97;2.05;;;;;;;;;;5009954;28;20045;-70
2023/12/12 11:43:20;;;;;;;7.50;2.42;;;;;;;;;;5010733;28;20096;-70
2023/12/12 11:45:47;;;;;;;11.85;2.08;;;;;;;;;;5009680;28;20072;-71
2023/12/12 11:48:13;;;;;;;8.00;2.78;;;;;;;;;;5010154;28;20103;-71
2023/12/12 11:50:41;;;;;;;5.45;2.10;;;;;;;;;;5010465;28;20077;-71
2023/12/12 11:53:08;;;;;;;2.80;1.83;;;;;;;;;;5009542;28;20046;-71
2023/12/12 11:55:42;;;;;;;8.18;1.98;;;;;;;;;;5008534;28;20073;-72
2023/12/12 11:58:09;;;;;;;7.22;1.95;;;;;;;;;;5009395;28;20064;-70
2023/12/12 12:00:37;;;;;;;10.10;2.33;;;;;;;;;;5003698;28;20475;-71
2023/12/12 12:03:05;;;;;;;10.52;1.73;;;;;;;;;;5004815;28;20054;-71
2023/12/12 12:05:32;;;;;;;5.50;1.50;;;;;;;;;;5000613;28;20049;-66
2023/12/12 12:08:00;;;;;;;5.43;2.20;;;;;;;;;;5009201;28;20060;-72
2023/12/12 12:10:26;;;;;;;3.65;1.80;;;;;;;;;;5009630;28;20057;-70
2023/12/12 12:12:57;;;;;;;4.38;1.70;;;;;;;;;;5009495;28;20111;-70
2023/12/12 12:15:24;;;;;;;9.10;2.58;;;;;;;;;;5009789;28;20145;-68
2023/12/12 12:17:51;;;;;;;6.68;1.75;;;;;;;;;;5004868;28;20038;-69
2023/12/12 12:20:18;;;;;;;7.93;1.92;;;;;;;;;;5008912;28;20050;-71
2023/12/12 12:22:44;;;;;;;9.88;2.08;;;;;;;;;;5002785;28;20411;-70
2023/12/12 12:25:11;;;;;;;5.75;1.70;;;;;;;;;;5009257;28;20042;-71
2023/12/12 12:27:49;;;;;;;5.65;1.50;;;;;;;;;;5005372;28;20290;-72
2023/12/12 12:30:16;;;;;;;4.00;1.50;;;;;;;;;;5008895;28;20054;-72
2023/12/12 12:33:01;;;;;;;7.63;1.83;;;;;;;;;;5003991;28;20659;-67
2023/12/12 12:35:28;;;;;;;4.60;1.63;;;;;;;;;;5005600;28;20053;-70
2023/12/12 12:37:56;;;;;;;16.25;3.00;;;;;;;;;;5006936;28;20060;-68
2023/12/12 12:40:36;;;;;;;7.15;2.85;;;;;;;;;;5004651;28;20046;-68
2023/12/12 12:43:13;;;;;;;11.13;1.88;;;;;;;;;;5008712;28;20041;-72
2023/12/12 12:45:40;;;;;;;5.60;1.50;;;;;;;;;;5003087;28;20301;-70
2023/12/12 12:48:07;;;;;;;9.57;1.77;;;;;;;;;;5009160;28;20068;-68
2023/12/12 12:50:33;;;;;;;5.93;1.50;;;;;;;;;;5001293;28;20045;-69
2023/12/12 12:53:01;;;;;;;3.70;1.60;;;;;;;;;;5007775;28;20062;-69
2023/12/12 12:55:27;;;;;;;11.07;2.50;;;;;;;;;;5005598;28;20049;-66
2023/12/12 12:57:54;;;;;;;11.73;2.63;;;;;;;;;;5000266;28;20140;-67
2023/12/12 13:00:21;;;;;;;13.93;1.75;;;;;;;;;;5002623;28;20062;-66
2023/12/12 13:02:47;;;;;;;9.30;2.50;;;;;;;;;;5003569;28;20041;-66
2023/12/12 13:05:13;;;;;;;3.95;1.70;;;;;;;;;;5008143;28;20042;-66
2023/12/12 13:07:40;;;;;;;5.63;2.08;;;;;;;;;;5009009;28;20059;-67
2023/12/12 13:10:09;;;;;;;7.78;2.28;;;;;;;;;;5009410;28;20046;-68
2023/12/12 13:12:38;;;;;;;20.40;9.15;;;;;;;;;;5007689;28;20491;-67
2023/12/12 13:15:07;;;;;;;8.88;2.33;;;;;;;;;;5009277;28;20060;-65
2023/12/12 13:17:34;;;;;;;9.60;2.47;;;;;;;;;;5008812;28;20048;-64
2023/12/12 13:20:12;;;;;;;8.02;1.90;;;;;;;;;;5008947;28;20054;-64
2023/12/12 13:22:44;;;;;;;4.40;1.90;;;;;;;;;;5008104;28;20049;-64
2023/12/12 13:25:11;;;;;;;8.27;1.98;;;;;;;;;;5008150;28;20061;-64
2023/12/12 13:27:38;;;;;;;6.03;2.30;;;;;;;;;;5009092;28;20054;-68
2023/12/12 13:30:09;;;;;;;4.45;2.38;;;;;;;;;;5006344;28;20050;-68
2023/12/12 13:32:41;;;;;;;4.37;1.93;;;;;;;;;;5008462;28;20052;-64
2023/12/12 13:35:09;;;;;;;11.60;2.90;;;;;;;;;;5006271;28;20281;-66
2023/12/12 13:37:53;;;;;;;4.70;1.80;;;;;;;;;;5004049;28;20052;-69
2023/12/12 13:40:19;;;;;;;5.70;2.67;;;;;;;;;;4997909;28;20798;-69
2023/12/12 13:42:49;;;;;;;9.20;2.20;;;;;;;;;;5006913;28;20057;-69
2023/12/12 13:45:17;;;;;;;10.95;2.97;;;;;;;;;;5008026;28;20701;-67
2023/12/12 13:47:43;;;;;;;10.13;2.65;;;;;;;;;;5004025;28;20084;-66
2023/12/12 13:50:10;;;;;;;5.47;2.33;;;;;;;;;;5006421;28;20112;-70
2023/12/12 13:52:37;;;;;;;7.50;3.38;;;;;;;;;;5008163;28;20063;-69
2023/12/12 13:55:03;;;;;;;7.45;2.72;;;;;;;;;;4999601;28;20060;-71
2023/12/12 13:57:30;;;;;;;6.97;2.15;;;;;;;;;;5002849;28;20050;-75
2023/12/12 13:59:57;;;;;;;6.53;2.28;;;;;;;;;;5007800;28;20052;-72
2023/12/12 14:02:23;;;;;;;7.60;2.47;;;;;;;;;;5005511;28;20038;-72
2023/12/12 14:05:01;;;;;;;10.48;3.25;;;;;;;;;;5003963;28;20139;-72
2023/12/12 14:07:28;;;;;;;5.78;2.13;;;;;;;;;;5003891;28;20073;-71
2023/12/12 14:09:54;;;;;;;4.35;2.30;;;;;;;;;;5004618;28;20049;-71
2023/12/12 14:12:21;;;;;;;14.38;2.80;;;;;;;;;;5004080;28;20302;-71
2023/12/12 14:14:47;;;;;;;9.60;3.40;;;;;;;;;;4993226;28;20102;-68
2023/12/12 14:17:14;;;;;;;5.03;2.42;;;;;;;;;;5003496;28;20400;-70
2023/12/12 14:19:41;;;;;;;14.43;2.95;;;;;;;;;;5005324;28;20128;-70
2023/12/12 14:22:07;;;;;;;6.65;2.47;;;;;;;;;;5007187;28;20132;-72
2023/12/12 14:24:39;;;;;;;5.43;3.07;;;;;;;;;;5005954;28;20219;-69
2023/12/12 14:27:06;;;;;;;7.45;2.67;;;;;;;;;;4999942;28;20042;-66
2023/12/12 14:29:33;;;;;;;8.82;4.28;;;;;;;;;;5000254;28;20081;-72
2023/12/12 14:32:00;;;;;;;14.52;3.58;;;;;;;;;;4994833;28;20054;-73
2023/12/12 14:34:26;;;;;;;11.38;2.60;;;;;;;;;;5005372;28;20046;-71
2023/12/12 14:36:53;;;;;;;12.85;3.25;;;;;;;;;;5003223;28;20057;-70
2023/12/12 14:39:19;;;;;;;8.63;3.30;;;;;;;;;;4999648;28;20532;-68